sensor_id;sensor_type;location;lat;lon;timestamp;temperature;humidity
36352;DHT22;22382;44.768;17.206;2022-12-07T00:01:28;7.40;99.90
36352;DHT22;22382;44.768;17.206;2022-12-07T00:03:56;7.40;99.90
36352;DHT22;22382;44.768;17.206;2022-12-07T00:06:38;7.40;99.90
36352;DHT22;22382;44.768;17.206;2022-12-07T00:09:08;7.40;99.90
36352;DHT22;22382;44.768;17.206;2022-12-07T00:11:36;7.40;99.90
36352;DHT22;22382;44.768;17.206;2022-12-07T00:14:06;7.40;99.90
36352;DHT22;22382;44.768;17.206;2022-12-07T00:16:34;7.40;99.90
36352;DHT22;22382;44.768;17.206;2022-12-07T00:19:03;7.40;99.90
36352;DHT22;22382;44.768;17.206;2022-12-07T00:21:35;7.40;99.90
36352;DHT22;22382;44.768;17.206;2022-12-07T00:24:03;7.40;99.90
36352;DHT22;22382;44.768;17.206;2022-12-07T00:26:36;7.40;99.90
36352;DHT22;22382;44.768;17.206;2022-12-07T00:29:17;7.40;99.90
36352;DHT22;22382;44.768;17.206;2022-12-07T00:31:44;7.40;99.90
36352;DHT22;22382;44.768;17.206;2022-12-07T00:34:14;7.30;99.90
36352;DHT22;22382;44.768;17.206;2022-12-07T00:36:42;7.30;99.90
36352;DHT22;22382;44.768;17.206;2022-12-07T00:39:09;7.30;99.90
36352;DHT22;22382;44.768;17.206;2022-12-07T00:41:36;7.30;99.90
36352;DHT22;22382;44.768;17.206;2022-12-07T00:44:03;7.30;99.90
36352;DHT22;22382;44.768;17.206;2022-12-07T00:46:30;7.30;99.90
36352;DHT22;22382;44.768;17.206;2022-12-07T00:48:57;7.30;99.90
36352;DHT22;22382;44.768;17.206;2022-12-07T00:51:25;7.20;99.90
36352;DHT22;22382;44.768;17.206;2022-12-07T00:53:52;7.20;99.90
36352;DHT22;22382;44.768;17.206;2022-12-07T00:56:25;7.20;99.90
36352;DHT22;22382;44.768;17.206;2022-12-07T00:59:02;7.20;99.90
36352;DHT22;22382;44.768;17.206;2022-12-07T01:01:32;7.20;99.90
36352;DHT22;22382;44.768;17.206;2022-12-07T01:03:59;7.20;99.90
36352;DHT22;22382;44.768;17.206;2022-12-07T01:06:30;7.30;99.90
36352;DHT22;22382;44.768;17.206;2022-12-07T01:08:57;7.20;99.90
36352;DHT22;22382;44.768;17.206;2022-12-07T01:11:26;7.10;99.90
36352;DHT22;22382;44.768;17.206;2022-12-07T01:13:56;7.10;99.90
36352;DHT22;22382;44.768;17.206;2022-12-07T01:16:25;7.00;99.90
36352;DHT22;22382;44.768;17.206;2022-12-07T01:18:54;7.00;99.90
36352;DHT22;22382;44.768;17.206;2022-12-07T01:21:24;7.00;99.90
36352;DHT22;22382;44.768;17.206;2022-12-07T01:23:52;7.00;99.90
36352;DHT22;22382;44.768;17.206;2022-12-07T01:26:23;7.00;99.90
36352;DHT22;22382;44.768;17.206;2022-12-07T01:28:51;7.00;99.90
36352;DHT22;22382;44.768;17.206;2022-12-07T01:31:20;7.00;99.90
36352;DHT22;22382;44.768;17.206;2022-12-07T01:33:50;7.00;99.90
36352;DHT22;22382;44.768;17.206;2022-12-07T01:36:20;7.00;99.90
36352;DHT22;22382;44.768;17.206;2022-12-07T01:38:50;7.10;99.90
36352;DHT22;22382;44.768;17.206;2022-12-07T01:41:20;7.00;99.90
36352;DHT22;22382;44.768;17.206;2022-12-07T01:46:37;7.10;99.90
36352;DHT22;22382;44.768;17.206;2022-12-07T01:49:06;7.00;99.90
36352;DHT22;22382;44.768;17.206;2022-12-07T01:51:38;7.00;99.90
36352;DHT22;22382;44.768;17.206;2022-12-07T01:54:08;7.00;99.90
36352;DHT22;22382;44.768;17.206;2022-12-07T01:56:37;7.00;99.90
36352;DHT22;22382;44.768;17.206;2022-12-07T01:59:06;7.00;99.90
36352;DHT22;22382;44.768;17.206;2022-12-07T02:01:33;7.00;99.90
36352;DHT22;22382;44.768;17.206;2022-12-07T02:04:00;7.00;99.90
36352;DHT22;22382;44.768;17.206;2022-12-07T02:06:28;7.00;99.90
36352;DHT22;22382;44.768;17.206;2022-12-07T02:08:55;7.10;99.90
36352;DHT22;22382;44.768;17.206;2022-12-07T02:11:23;7.10;99.90
36352;DHT22;22382;44.768;17.206;2022-12-07T02:13:51;7.20;99.90
36352;DHT22;22382;44.768;17.206;2022-12-07T02:19:35;7.20;99.90
36352;DHT22;22382;44.768;17.206;2022-12-07T02:22:24;7.20;99.90
36352;DHT22;22382;44.768;17.206;2022-12-07T02:25:18;7.30;99.90
36352;DHT22;22382;44.768;17.206;2022-12-07T02:28:34;7.20;99.90
36352;DHT22;22382;44.768;17.206;2022-12-07T02:31:21;7.30;99.90
36352;DHT22;22382;44.768;17.206;2022-12-07T02:33:54;7.30;99.90
36352;DHT22;22382;44.768;17.206;2022-12-07T02:36:30;7.20;99.90
36352;DHT22;22382;44.768;17.206;2022-12-07T02:41:45;7.30;99.90
36352;DHT22;22382;44.768;17.206;2022-12-07T02:44:17;7.30;99.90
36352;DHT22;22382;44.768;17.206;2022-12-07T02:47:04;7.30;99.90
36352;DHT22;22382;44.768;17.206;2022-12-07T02:49:33;7.20;99.90
36352;DHT22;22382;44.768;17.206;2022-12-07T02:52:00;7.20;99.90
36352;DHT22;22382;44.768;17.206;2022-12-07T02:54:27;7.10;99.90
36352;DHT22;22382;44.768;17.206;2022-12-07T03:02:35;7.10;99.90
36352;DHT22;22382;44.768;17.206;2022-12-07T03:05:32;7.10;99.90
36352;DHT22;22382;44.768;17.206;2022-12-07T03:08:33;7.10;99.90
36352;DHT22;22382;44.768;17.206;2022-12-07T03:11:14;7.00;99.90
36352;DHT22;22382;44.768;17.206;2022-12-07T03:14:13;7.10;99.90
36352;DHT22;22382;44.768;17.206;2022-12-07T03:17:00;7.00;99.90
36352;DHT22;22382;44.768;17.206;2022-12-07T03:19:31;7.00;99.90
36352;DHT22;22382;44.768;17.206;2022-12-07T03:22:03;6.90;99.90
36352;DHT22;22382;44.768;17.206;2022-12-07T03:25:03;6.90;99.90
36352;DHT22;22382;44.768;17.206;2022-12-07T03:27:44;6.90;99.90
36352;DHT22;22382;44.768;17.206;2022-12-07T03:30:17;7.00;99.90
36352;DHT22;22382;44.768;17.206;2022-12-07T03:33:06;7.00;99.90
36352;DHT22;22382;44.768;17.206;2022-12-07T03:35:39;6.90;99.90
36352;DHT22;22382;44.768;17.206;2022-12-07T03:38:25;6.80;99.90
36352;DHT22;22382;44.768;17.206;2022-12-07T03:41:05;6.80;99.90
36352;DHT22;22382;44.768;17.206;2022-12-07T03:43:34;6.90;99.90
36352;DHT22;22382;44.768;17.206;2022-12-07T03:46:19;6.90;99.90
36352;DHT22;22382;44.768;17.206;2022-12-07T03:48:54;6.80;99.90
36352;DHT22;22382;44.768;17.206;2022-12-07T03:51:56;6.80;99.90
36352;DHT22;22382;44.768;17.206;2022-12-07T03:54:44;6.80;99.90
36352;DHT22;22382;44.768;17.206;2022-12-07T03:57:12;6.90;99.90
36352;DHT22;22382;44.768;17.206;2022-12-07T03:59:40;6.90;99.90
36352;DHT22;22382;44.768;17.206;2022-12-07T04:02:11;7.00;99.90
36352;DHT22;22382;44.768;17.206;2022-12-07T04:04:39;7.00;99.90
36352;DHT22;22382;44.768;17.206;2022-12-07T04:07:06;7.00;99.90
36352;DHT22;22382;44.768;17.206;2022-12-07T04:09:33;7.00;99.90
36352;DHT22;22382;44.768;17.206;2022-12-07T04:12:00;7.10;99.90
36352;DHT22;22382;44.768;17.206;2022-12-07T04:14:27;7.00;99.90
36352;DHT22;22382;44.768;17.206;2022-12-07T04:16:56;7.10;99.90
36352;DHT22;22382;44.768;17.206;2022-12-07T04:19:34;7.10;99.90
36352;DHT22;22382;44.768;17.206;2022-12-07T04:22:02;7.10;99.90
36352;DHT22;22382;44.768;17.206;2022-12-07T04:24:30;7.00;99.90
36352;DHT22;22382;44.768;17.206;2022-12-07T04:26:57;7.00;99.90
36352;DHT22;22382;44.768;17.206;2022-12-07T04:29:24;7.00;99.90
36352;DHT22;22382;44.768;17.206;2022-12-07T04:31:52;6.90;99.90
36352;DHT22;22382;44.768;17.206;2022-12-07T04:34:19;6.90;99.90
36352;DHT22;22382;44.768;17.206;2022-12-07T04:36:46;6.90;99.90
36352;DHT22;22382;44.768;17.206;2022-12-07T04:39:28;6.90;99.90
36352;DHT22;22382;44.768;17.206;2022-12-07T04:41:56;7.00;99.90
36352;DHT22;22382;44.768;17.206;2022-12-07T04:44:25;7.00;99.90
36352;DHT22;22382;44.768;17.206;2022-12-07T04:46:52;7.00;99.90
36352;DHT22;22382;44.768;17.206;2022-12-07T04:49:19;7.00;99.90
36352;DHT22;22382;44.768;17.206;2022-12-07T04:51:47;7.00;99.90
36352;DHT22;22382;44.768;17.206;2022-12-07T04:54:15;7.00;99.90
36352;DHT22;22382;44.768;17.206;2022-12-07T04:56:42;7.00;99.90
36352;DHT22;22382;44.768;17.206;2022-12-07T04:59:11;6.90;99.90
36352;DHT22;22382;44.768;17.206;2022-12-07T05:01:38;6.90;99.90
36352;DHT22;22382;44.768;17.206;2022-12-07T05:04:06;6.90;99.90
36352;DHT22;22382;44.768;17.206;2022-12-07T05:06:33;7.00;99.90
36352;DHT22;22382;44.768;17.206;2022-12-07T05:09:00;7.00;99.90
36352;DHT22;22382;44.768;17.206;2022-12-07T05:11:27;7.00;99.90
36352;DHT22;22382;44.768;17.206;2022-12-07T05:16:38;7.00;99.90
36352;DHT22;22382;44.768;17.206;2022-12-07T05:19:07;6.90;99.90
36352;DHT22;22382;44.768;17.206;2022-12-07T05:21:35;6.90;99.90
36352;DHT22;22382;44.768;17.206;2022-12-07T05:24:03;6.90;99.90
36352;DHT22;22382;44.768;17.206;2022-12-07T05:26:30;6.90;99.90
36352;DHT22;22382;44.768;17.206;2022-12-07T05:28:58;6.90;99.90
36352;DHT22;22382;44.768;17.206;2022-12-07T05:31:26;6.80;99.90
36352;DHT22;22382;44.768;17.206;2022-12-07T05:33:53;6.80;99.90
36352;DHT22;22382;44.768;17.206;2022-12-07T05:36:20;6.80;99.90
36352;DHT22;22382;44.768;17.206;2022-12-07T05:38:47;6.80;99.90
36352;DHT22;22382;44.768;17.206;2022-12-07T05:41:17;6.80;99.90
36352;DHT22;22382;44.768;17.206;2022-12-07T05:44:04;6.90;99.90
36352;DHT22;22382;44.768;17.206;2022-12-07T05:46:31;6.80;99.90
36352;DHT22;22382;44.768;17.206;2022-12-07T05:48:58;6.80;99.90
36352;DHT22;22382;44.768;17.206;2022-12-07T05:51:25;6.90;99.90
36352;DHT22;22382;44.768;17.206;2022-12-07T05:53:52;6.90;99.90
36352;DHT22;22382;44.768;17.206;2022-12-07T05:56:19;7.00;99.90
36352;DHT22;22382;44.768;17.206;2022-12-07T05:58:47;7.00;99.90
36352;DHT22;22382;44.768;17.206;2022-12-07T06:01:32;7.00;99.90
36352;DHT22;22382;44.768;17.206;2022-12-07T06:03:59;7.00;99.90
36352;DHT22;22382;44.768;17.206;2022-12-07T06:06:26;7.00;99.90
36352;DHT22;22382;44.768;17.206;2022-12-07T06:08:53;7.10;99.90
36352;DHT22;22382;44.768;17.206;2022-12-07T06:11:20;7.10;99.90
36352;DHT22;22382;44.768;17.206;2022-12-07T06:14:06;7.10;99.90
36352;DHT22;22382;44.768;17.206;2022-12-07T06:16:32;7.00;99.90
36352;DHT22;22382;44.768;17.206;2022-12-07T06:18:59;7.00;99.90
36352;DHT22;22382;44.768;17.206;2022-12-07T06:21:27;7.00;99.90
36352;DHT22;22382;44.768;17.206;2022-12-07T06:23:54;7.10;99.90
36352;DHT22;22382;44.768;17.206;2022-12-07T06:26:21;7.20;99.90
36352;DHT22;22382;44.768;17.206;2022-12-07T06:28:48;7.10;99.90
36352;DHT22;22382;44.768;17.206;2022-12-07T06:31:15;7.10;99.90
36352;DHT22;22382;44.768;17.206;2022-12-07T06:33:43;7.10;99.90
36352;DHT22;22382;44.768;17.206;2022-12-07T06:36:10;7.00;99.90
36352;DHT22;22382;44.768;17.206;2022-12-07T06:38:37;7.00;99.90
36352;DHT22;22382;44.768;17.206;2022-12-07T06:41:04;6.90;99.90
36352;DHT22;22382;44.768;17.206;2022-12-07T06:43:32;6.90;99.90
36352;DHT22;22382;44.768;17.206;2022-12-07T06:45:59;6.90;99.90
36352;DHT22;22382;44.768;17.206;2022-12-07T06:48:26;6.90;99.90
36352;DHT22;22382;44.768;17.206;2022-12-07T06:50:53;6.90;99.90
36352;DHT22;22382;44.768;17.206;2022-12-07T06:53:22;6.90;99.90
36352;DHT22;22382;44.768;17.206;2022-12-07T06:55:49;7.00;99.90
36352;DHT22;22382;44.768;17.206;2022-12-07T06:58:16;7.00;99.90
36352;DHT22;22382;44.768;17.206;2022-12-07T07:00:44;7.00;99.90
36352;DHT22;22382;44.768;17.206;2022-12-07T07:03:11;7.00;99.90
36352;DHT22;22382;44.768;17.206;2022-12-07T07:05:38;7.00;99.90
36352;DHT22;22382;44.768;17.206;2022-12-07T07:08:05;7.00;99.90
36352;DHT22;22382;44.768;17.206;2022-12-07T07:10:49;7.10;99.90
36352;DHT22;22382;44.768;17.206;2022-12-07T07:13:16;7.10;99.90
36352;DHT22;22382;44.768;17.206;2022-12-07T07:15:43;7.10;99.90
36352;DHT22;22382;44.768;17.206;2022-12-07T07:18:10;7.10;99.90
36352;DHT22;22382;44.768;17.206;2022-12-07T07:20:38;7.10;99.90
36352;DHT22;22382;44.768;17.206;2022-12-07T07:23:05;7.10;99.90
36352;DHT22;22382;44.768;17.206;2022-12-07T07:25:33;7.10;99.90
36352;DHT22;22382;44.768;17.206;2022-12-07T07:28:00;7.20;99.90
36352;DHT22;22382;44.768;17.206;2022-12-07T07:30:27;7.20;99.90
36352;DHT22;22382;44.768;17.206;2022-12-07T07:32:59;7.30;99.90
36352;DHT22;22382;44.768;17.206;2022-12-07T07:35:27;7.40;99.90
36352;DHT22;22382;44.768;17.206;2022-12-07T07:37:55;7.40;99.90
36352;DHT22;22382;44.768;17.206;2022-12-07T07:40:22;7.50;99.90
36352;DHT22;22382;44.768;17.206;2022-12-07T07:42:51;7.60;99.90
36352;DHT22;22382;44.768;17.206;2022-12-07T07:45:20;7.70;99.90
36352;DHT22;22382;44.768;17.206;2022-12-07T07:47:48;7.80;99.90
36352;DHT22;22382;44.768;17.206;2022-12-07T07:50:15;7.80;99.90
36352;DHT22;22382;44.768;17.206;2022-12-07T07:52:43;7.90;99.90
36352;DHT22;22382;44.768;17.206;2022-12-07T07:55:10;7.80;99.90
36352;DHT22;22382;44.768;17.206;2022-12-07T07:57:38;7.80;99.90
36352;DHT22;22382;44.768;17.206;2022-12-07T08:00:12;7.90;99.90
36352;DHT22;22382;44.768;17.206;2022-12-07T08:02:40;7.90;99.90
36352;DHT22;22382;44.768;17.206;2022-12-07T08:05:07;7.90;99.90
36352;DHT22;22382;44.768;17.206;2022-12-07T08:07:34;8.00;99.90
36352;DHT22;22382;44.768;17.206;2022-12-07T08:10:02;8.00;99.90
36352;DHT22;22382;44.768;17.206;2022-12-07T08:12:30;8.10;99.90
36352;DHT22;22382;44.768;17.206;2022-12-07T08:14:57;8.20;99.90
36352;DHT22;22382;44.768;17.206;2022-12-07T08:17:23;8.30;99.90
36352;DHT22;22382;44.768;17.206;2022-12-07T08:19:50;8.30;99.90
36352;DHT22;22382;44.768;17.206;2022-12-07T08:22:18;8.20;99.90
36352;DHT22;22382;44.768;17.206;2022-12-07T08:24:45;8.10;99.90
36352;DHT22;22382;44.768;17.206;2022-12-07T08:27:12;8.10;99.90
36352;DHT22;22382;44.768;17.206;2022-12-07T08:29:39;8.10;99.90
36352;DHT22;22382;44.768;17.206;2022-12-07T08:32:06;8.20;99.90
36352;DHT22;22382;44.768;17.206;2022-12-07T08:34:35;8.20;99.90
36352;DHT22;22382;44.768;17.206;2022-12-07T08:37:03;8.10;99.90
36352;DHT22;22382;44.768;17.206;2022-12-07T08:39:30;8.20;99.90
36352;DHT22;22382;44.768;17.206;2022-12-07T08:41:58;8.20;99.90
36352;DHT22;22382;44.768;17.206;2022-12-07T08:44:25;8.40;99.90
36352;DHT22;22382;44.768;17.206;2022-12-07T08:46:57;8.40;99.90
36352;DHT22;22382;44.768;17.206;2022-12-07T08:49:41;8.30;99.90
36352;DHT22;22382;44.768;17.206;2022-12-07T08:52:11;8.40;99.90
36352;DHT22;22382;44.768;17.206;2022-12-07T08:54:39;8.50;99.90
36352;DHT22;22382;44.768;17.206;2022-12-07T08:57:06;8.60;99.90
36352;DHT22;22382;44.768;17.206;2022-12-07T08:59:36;8.60;99.90
36352;DHT22;22382;44.768;17.206;2022-12-07T09:02:05;8.50;99.90
36352;DHT22;22382;44.768;17.206;2022-12-07T09:04:32;8.40;99.90
36352;DHT22;22382;44.768;17.206;2022-12-07T09:06:59;8.40;99.90
36352;DHT22;22382;44.768;17.206;2022-12-07T09:09:26;8.40;99.90
36352;DHT22;22382;44.768;17.206;2022-12-07T09:11:53;8.50;99.90
36352;DHT22;22382;44.768;17.206;2022-12-07T09:14:21;8.50;99.90
36352;DHT22;22382;44.768;17.206;2022-12-07T09:16:48;8.50;99.90
36352;DHT22;22382;44.768;17.206;2022-12-07T09:19:16;8.50;99.90
36352;DHT22;22382;44.768;17.206;2022-12-07T09:21:43;8.60;99.90
36352;DHT22;22382;44.768;17.206;2022-12-07T09:24:12;8.60;99.90
36352;DHT22;22382;44.768;17.206;2022-12-07T09:26:39;8.50;99.90
36352;DHT22;22382;44.768;17.206;2022-12-07T09:29:07;8.60;99.90
36352;DHT22;22382;44.768;17.206;2022-12-07T09:31:36;8.70;99.90
36352;DHT22;22382;44.768;17.206;2022-12-07T09:34:04;8.70;99.90
36352;DHT22;22382;44.768;17.206;2022-12-07T09:36:33;8.80;99.90
36352;DHT22;22382;44.768;17.206;2022-12-07T09:39:00;8.60;99.90
36352;DHT22;22382;44.768;17.206;2022-12-07T09:41:29;8.60;99.90
36352;DHT22;22382;44.768;17.206;2022-12-07T09:44:05;8.70;99.90
36352;DHT22;22382;44.768;17.206;2022-12-07T09:46:38;8.70;99.90
36352;DHT22;22382;44.768;17.206;2022-12-07T09:49:14;8.70;99.90
36352;DHT22;22382;44.768;17.206;2022-12-07T09:51:43;8.60;99.90
36352;DHT22;22382;44.768;17.206;2022-12-07T09:54:15;8.70;99.90
36352;DHT22;22382;44.768;17.206;2022-12-07T09:56:43;8.80;99.90
36352;DHT22;22382;44.768;17.206;2022-12-07T09:59:15;8.80;99.90
36352;DHT22;22382;44.768;17.206;2022-12-07T10:01:43;8.80;99.90
36352;DHT22;22382;44.768;17.206;2022-12-07T10:04:22;8.50;99.90
36352;DHT22;22382;44.768;17.206;2022-12-07T10:06:51;8.30;99.90
36352;DHT22;22382;44.768;17.206;2022-12-07T10:09:20;8.20;99.90
36352;DHT22;22382;44.768;17.206;2022-12-07T10:12:08;8.00;99.90
36352;DHT22;22382;44.768;17.206;2022-12-07T10:14:53;7.80;99.90
36352;DHT22;22382;44.768;17.206;2022-12-07T10:17:38;7.70;99.90
36352;DHT22;22382;44.768;17.206;2022-12-07T10:20:14;7.70;99.90
36352;DHT22;22382;44.768;17.206;2022-12-07T10:23:03;7.70;99.90
36352;DHT22;22382;44.768;17.206;2022-12-07T10:25:36;7.70;99.90
36352;DHT22;22382;44.768;17.206;2022-12-07T10:31:00;7.70;99.90
36352;DHT22;22382;44.768;17.206;2022-12-07T10:33:55;7.70;99.90
36352;DHT22;22382;44.768;17.206;2022-12-07T10:36:34;7.80;99.90
36352;DHT22;22382;44.768;17.206;2022-12-07T10:41:31;8.00;99.90
36352;DHT22;22382;44.768;17.206;2022-12-07T10:43:58;8.00;99.90
36352;DHT22;22382;44.768;17.206;2022-12-07T10:46:46;8.00;99.90
36352;DHT22;22382;44.768;17.206;2022-12-07T11:00:36;8.20;99.90
36352;DHT22;22382;44.768;17.206;2022-12-07T11:03:22;8.20;99.90
36352;DHT22;22382;44.768;17.206;2022-12-07T11:17:14;8.20;99.90
36352;DHT22;22382;44.768;17.206;2022-12-07T11:25:49;8.40;99.90
36352;DHT22;22382;44.768;17.206;2022-12-07T11:28:46;8.60;99.90
36352;DHT22;22382;44.768;17.206;2022-12-07T11:34:05;8.70;99.90
36352;DHT22;22382;44.768;17.206;2022-12-07T11:36:37;8.70;99.90
36352;DHT22;22382;44.768;17.206;2022-12-07T11:41:40;8.70;99.90
36352;DHT22;22382;44.768;17.206;2022-12-07T11:44:30;8.80;99.90
36352;DHT22;22382;44.768;17.206;2022-12-07T11:52:51;8.80;99.90
36352;DHT22;22382;44.768;17.206;2022-12-07T11:55:34;8.80;99.90
36352;DHT22;22382;44.768;17.206;2022-12-07T12:06:27;8.60;99.90
36352;DHT22;22382;44.768;17.206;2022-12-07T12:09:04;8.60;99.90
36352;DHT22;22382;44.768;17.206;2022-12-07T12:23:07;8.50;99.90
36352;DHT22;22382;44.768;17.206;2022-12-07T12:25:54;8.50;99.90
36352;DHT22;22382;44.768;17.206;2022-12-07T12:29:02;8.40;99.90
36352;DHT22;22382;44.768;17.206;2022-12-07T12:31:39;8.20;99.90
36352;DHT22;22382;44.768;17.206;2022-12-07T12:34:33;8.20;99.90
36352;DHT22;22382;44.768;17.206;2022-12-07T12:38:20;8.10;99.90
36352;DHT22;22382;44.768;17.206;2022-12-07T12:42:55;8.30;99.90
36352;DHT22;22382;44.768;17.206;2022-12-07T12:45:28;8.40;99.90
36352;DHT22;22382;44.768;17.206;2022-12-07T12:48:03;8.40;99.90
36352;DHT22;22382;44.768;17.206;2022-12-07T12:50:36;8.50;99.90
36352;DHT22;22382;44.768;17.206;2022-12-07T12:53:19;8.50;99.90
36352;DHT22;22382;44.768;17.206;2022-12-07T12:55:59;8.40;99.90
36352;DHT22;22382;44.768;17.206;2022-12-07T12:58:37;8.30;99.90
36352;DHT22;22382;44.768;17.206;2022-12-07T13:04:03;8.30;99.90
36352;DHT22;22382;44.768;17.206;2022-12-07T13:06:41;8.30;99.90
36352;DHT22;22382;44.768;17.206;2022-12-07T13:09:28;8.30;99.90
36352;DHT22;22382;44.768;17.206;2022-12-07T13:12:05;8.40;99.90
36352;DHT22;22382;44.768;17.206;2022-12-07T13:20:03;8.50;99.90
36352;DHT22;22382;44.768;17.206;2022-12-07T13:25:31;8.60;99.90
36352;DHT22;22382;44.768;17.206;2022-12-07T13:28:11;8.60;99.90
36352;DHT22;22382;44.768;17.206;2022-12-07T13:31:04;8.50;99.90
36352;DHT22;22382;44.768;17.206;2022-12-07T13:33:36;8.50;99.90
36352;DHT22;22382;44.768;17.206;2022-12-07T13:36:03;8.40;99.90
36352;DHT22;22382;44.768;17.206;2022-12-07T13:38:33;8.30;99.90
36352;DHT22;22382;44.768;17.206;2022-12-07T13:41:13;8.30;99.90
36352;DHT22;22382;44.768;17.206;2022-12-07T13:46:11;8.20;99.90
36352;DHT22;22382;44.768;17.206;2022-12-07T13:48:49;8.20;99.90
36352;DHT22;22382;44.768;17.206;2022-12-07T13:51:27;8.00;99.90
36352;DHT22;22382;44.768;17.206;2022-12-07T13:53:59;8.00;99.90
36352;DHT22;22382;44.768;17.206;2022-12-07T13:56:34;8.00;99.90
36352;DHT22;22382;44.768;17.206;2022-12-07T13:59:03;8.00;99.90
36352;DHT22;22382;44.768;17.206;2022-12-07T14:01:32;8.10;99.90
36352;DHT22;22382;44.768;17.206;2022-12-07T14:06:50;8.00;99.90
36352;DHT22;22382;44.768;17.206;2022-12-07T14:09:20;8.10;99.90
36352;DHT22;22382;44.768;17.206;2022-12-07T14:11:50;8.10;99.90
36352;DHT22;22382;44.768;17.206;2022-12-07T14:14:30;8.00;99.90
36352;DHT22;22382;44.768;17.206;2022-12-07T14:17:19;7.90;99.90
36352;DHT22;22382;44.768;17.206;2022-12-07T14:22:34;7.90;99.90
36352;DHT22;22382;44.768;17.206;2022-12-07T14:27:33;7.90;99.90
36352;DHT22;22382;44.768;17.206;2022-12-07T14:30:02;7.90;99.90
36352;DHT22;22382;44.768;17.206;2022-12-07T14:32:30;7.80;99.90
36352;DHT22;22382;44.768;17.206;2022-12-07T14:35:00;7.90;99.90
36352;DHT22;22382;44.768;17.206;2022-12-07T14:37:29;7.90;99.90
36352;DHT22;22382;44.768;17.206;2022-12-07T14:39:57;8.00;99.90
36352;DHT22;22382;44.768;17.206;2022-12-07T14:42:27;8.00;99.90
36352;DHT22;22382;44.768;17.206;2022-12-07T14:44:55;8.00;99.90
36352;DHT22;22382;44.768;17.206;2022-12-07T14:47:23;7.90;99.90
36352;DHT22;22382;44.768;17.206;2022-12-07T14:50:16;7.90;99.90
36352;DHT22;22382;44.768;17.206;2022-12-07T14:52:47;7.80;99.90
36352;DHT22;22382;44.768;17.206;2022-12-07T14:55:34;7.90;99.90
36352;DHT22;22382;44.768;17.206;2022-12-07T14:58:01;7.90;99.90
36352;DHT22;22382;44.768;17.206;2022-12-07T15:00:28;7.90;99.90
36352;DHT22;22382;44.768;17.206;2022-12-07T15:02:56;7.80;99.90
36352;DHT22;22382;44.768;17.206;2022-12-07T15:05:23;7.80;99.90
36352;DHT22;22382;44.768;17.206;2022-12-07T15:07:51;7.80;99.90
36352;DHT22;22382;44.768;17.206;2022-12-07T15:10:29;7.70;99.90
36352;DHT22;22382;44.768;17.206;2022-12-07T15:13:00;7.80;99.90
36352;DHT22;22382;44.768;17.206;2022-12-07T15:15:48;7.80;99.90
36352;DHT22;22382;44.768;17.206;2022-12-07T15:18:15;7.80;99.90
36352;DHT22;22382;44.768;17.206;2022-12-07T15:20:42;7.70;99.90
36352;DHT22;22382;44.768;17.206;2022-12-07T15:23:10;7.70;99.90
36352;DHT22;22382;44.768;17.206;2022-12-07T15:25:45;7.70;99.90
36352;DHT22;22382;44.768;17.206;2022-12-07T15:28:13;7.70;99.90
36352;DHT22;22382;44.768;17.206;2022-12-07T15:30:41;7.70;99.90
36352;DHT22;22382;44.768;17.206;2022-12-07T15:33:10;7.70;99.90
36352;DHT22;22382;44.768;17.206;2022-12-07T15:35:42;7.70;99.90
36352;DHT22;22382;44.768;17.206;2022-12-07T15:38:10;7.80;99.90
36352;DHT22;22382;44.768;17.206;2022-12-07T15:40:37;7.80;99.90
36352;DHT22;22382;44.768;17.206;2022-12-07T15:43:05;7.80;99.90
36352;DHT22;22382;44.768;17.206;2022-12-07T15:45:51;7.80;99.90
36352;DHT22;22382;44.768;17.206;2022-12-07T15:48:19;7.70;99.90
36352;DHT22;22382;44.768;17.206;2022-12-07T15:51:05;7.60;99.90
36352;DHT22;22382;44.768;17.206;2022-12-07T15:53:32;7.60;99.90
36352;DHT22;22382;44.768;17.206;2022-12-07T15:56:00;7.60;99.90
36352;DHT22;22382;44.768;17.206;2022-12-07T15:58:27;7.70;99.90
36352;DHT22;22382;44.768;17.206;2022-12-07T16:00:54;7.60;99.90
36352;DHT22;22382;44.768;17.206;2022-12-07T16:03:21;7.60;99.90
36352;DHT22;22382;44.768;17.206;2022-12-07T16:05:49;7.60;99.90
36352;DHT22;22382;44.768;17.206;2022-12-07T16:08:16;7.60;99.90
36352;DHT22;22382;44.768;17.206;2022-12-07T16:10:43;7.60;99.90
36352;DHT22;22382;44.768;17.206;2022-12-07T16:13:11;7.50;99.90
36352;DHT22;22382;44.768;17.206;2022-12-07T16:15:42;7.50;99.90
36352;DHT22;22382;44.768;17.206;2022-12-07T16:18:09;7.60;99.90
36352;DHT22;22382;44.768;17.206;2022-12-07T16:20:36;7.60;99.90
36352;DHT22;22382;44.768;17.206;2022-12-07T16:23:03;7.50;99.90
36352;DHT22;22382;44.768;17.206;2022-12-07T16:25:30;7.50;99.90
36352;DHT22;22382;44.768;17.206;2022-12-07T16:27:57;7.50;99.90
36352;DHT22;22382;44.768;17.206;2022-12-07T16:30:24;7.50;99.90
36352;DHT22;22382;44.768;17.206;2022-12-07T16:32:52;7.40;99.90
36352;DHT22;22382;44.768;17.206;2022-12-07T16:35:24;7.40;99.90
36352;DHT22;22382;44.768;17.206;2022-12-07T16:37:51;7.40;99.90
36352;DHT22;22382;44.768;17.206;2022-12-07T16:40:18;7.40;99.90
36352;DHT22;22382;44.768;17.206;2022-12-07T16:42:45;7.30;99.90
36352;DHT22;22382;44.768;17.206;2022-12-07T16:45:12;7.30;99.90
36352;DHT22;22382;44.768;17.206;2022-12-07T16:47:46;7.20;99.90
36352;DHT22;22382;44.768;17.206;2022-12-07T16:50:13;7.20;99.90
36352;DHT22;22382;44.768;17.206;2022-12-07T16:52:40;7.20;99.90
36352;DHT22;22382;44.768;17.206;2022-12-07T16:55:07;7.10;99.90
36352;DHT22;22382;44.768;17.206;2022-12-07T16:57:34;7.10;99.90
36352;DHT22;22382;44.768;17.206;2022-12-07T17:00:02;7.10;99.90
36352;DHT22;22382;44.768;17.206;2022-12-07T17:02:30;7.10;99.90
36352;DHT22;22382;44.768;17.206;2022-12-07T17:04:57;7.10;99.90
36352;DHT22;22382;44.768;17.206;2022-12-07T17:07:24;7.20;99.90
36352;DHT22;22382;44.768;17.206;2022-12-07T17:09:52;7.20;99.90
36352;DHT22;22382;44.768;17.206;2022-12-07T17:12:19;7.10;99.90
36352;DHT22;22382;44.768;17.206;2022-12-07T17:14:46;7.20;99.90
36352;DHT22;22382;44.768;17.206;2022-12-07T17:17:32;7.20;99.90
36352;DHT22;22382;44.768;17.206;2022-12-07T17:19:59;7.20;99.90
36352;DHT22;22382;44.768;17.206;2022-12-07T17:22:26;7.20;99.90
36352;DHT22;22382;44.768;17.206;2022-12-07T17:24:53;7.30;99.90
36352;DHT22;22382;44.768;17.206;2022-12-07T17:27:20;7.30;99.90
36352;DHT22;22382;44.768;17.206;2022-12-07T17:29:47;7.30;99.90
36352;DHT22;22382;44.768;17.206;2022-12-07T17:32:14;7.30;99.90
36352;DHT22;22382;44.768;17.206;2022-12-07T17:34:41;7.30;99.90
36352;DHT22;22382;44.768;17.206;2022-12-07T17:37:08;7.30;99.90
36352;DHT22;22382;44.768;17.206;2022-12-07T17:39:35;7.30;99.90
36352;DHT22;22382;44.768;17.206;2022-12-07T17:42:02;7.30;99.90
36352;DHT22;22382;44.768;17.206;2022-12-07T17:44:48;7.30;99.90